Time;durP1;ratioP1;P1;durP2;ratioP2;P2;SDS_P1;SDS_P2;PMS_P1;PMS_P2;Temp;Humidity;BMP_temperature;BMP_pressure;BME280_temperature;BME280_humidity;BME280_pressure;Samples;Min_cycle;Max_cycle;Signal;HPM_P1;HPM_P2
2022/05/29 00:02:02;;;;;;;14.20;7.10;;;;;;;12.17;75.86;100894.06;5038674;28;20790;-64
2022/05/29 00:04:27;;;;;;;13.20;7.20;;;;;;;11.87;76.36;100893.00;5038452;28;20399;-65
2022/05/29 00:06:56;;;;;;;13.40;7.43;;;;;;;11.87;76.52;100897.34;5038496;28;20817;-65
2022/05/29 00:09:31;;;;;;;14.93;7.90;;;;;;;11.86;77.28;100895.59;5038976;28;20261;-64
2022/05/29 00:11:57;;;;;;;12.17;7.10;;;;;;;11.72;77.36;100895.50;5037711;28;20412;-64
2022/05/29 00:14:23;;;;;;;14.63;7.67;;;;;;;11.67;78.19;100892.84;5038532;28;20394;-65
2022/05/29 00:16:48;;;;;;;11.13;7.60;;;;;;;12.01;77.57;100887.88;5038280;28;20874;-65
2022/05/29 00:19:14;;;;;;;12.53;7.30;;;;;;;11.78;77.98;100892.91;5038296;28;20181;-64
2022/05/29 00:21:40;;;;;;;15.07;8.23;;;;;;;11.84;78.40;100882.53;5038828;28;20576;-64
2022/05/29 00:24:06;;;;;;;13.80;7.73;;;;;;;11.75;78.04;100883.31;5037522;28;20481;-64
2022/05/29 00:26:31;;;;;;;17.03;7.63;;;;;;;11.78;77.88;100879.84;5037556;28;20220;-64
2022/05/29 00:28:57;;;;;;;13.63;7.30;;;;;;;11.78;78.29;100879.84;5037766;28;20428;-65
2022/05/29 00:31:22;;;;;;;15.07;8.13;;;;;;;11.88;77.59;100876.47;5038151;28;20442;-65
2022/05/29 00:33:48;;;;;;;15.23;8.83;;;;;;;11.94;77.92;100873.00;5038068;28;20201;-64
2022/05/29 00:36:15;;;;;;;17.50;8.00;;;;;;;12.04;77.62;100872.25;5038733;28;20478;-64
2022/05/29 00:38:42;;;;;;;18.43;7.90;;;;;;;11.94;77.73;100873.91;5037520;28;20170;-64
2022/05/29 00:41:23;;;;;;;17.00;7.90;;;;;;;12.15;77.53;100866.19;5038150;28;20660;-64
2022/05/29 00:44:13;;;;;;;15.57;7.90;;;;;;;11.89;77.49;100867.75;5037299;28;20793;-64
2022/05/29 00:46:46;;;;;;;12.53;7.90;;;;;;;11.50;78.59;100868.34;5038063;28;20490;-65
2022/05/29 00:49:12;;;;;;;14.90;7.90;;;;;;;11.50;78.25;100865.72;5037902;28;20391;-65
2022/05/29 00:51:41;;;;;;;16.57;8.47;;;;;;;11.76;78.13;100865.94;5037893;28;20384;-65
2022/05/29 00:54:07;;;;;;;15.90;7.50;;;;;;;11.93;77.35;100868.63;5036923;28;20444;-65
2022/05/29 00:56:34;;;;;;;17.50;6.60;;;;;;;11.69;77.88;100859.78;5037793;28;20432;-63
2022/05/29 00:59:00;;;;;;;11.43;7.03;;;;;;;11.63;77.61;100857.97;5038445;28;20178;-64
2022/05/29 01:01:27;;;;;;;14.90;7.90;;;;;;;11.87;77.73;100852.94;5037869;28;20453;-64
2022/05/29 01:03:52;;;;;;;12.77;6.83;;;;;;;11.89;77.52;100848.59;5036947;28;20694;-65
2022/05/29 01:06:17;;;;;;;16.43;7.53;;;;;;;11.80;77.19;100852.88;5037456;28;20470;-65
2022/05/29 01:08:43;;;;;;;15.40;7.30;;;;;;;11.78;77.58;100849.41;5037703;28;20178;-65
2022/05/29 01:11:25;;;;;;;15.67;7.60;;;;;;;11.87;77.81;100852.94;5037767;28;20504;-64
2022/05/29 01:14:15;;;;;;;13.90;7.37;;;;;;;11.63;77.28;100842.31;5036930;28;20524;-65
2022/05/29 01:16:46;;;;;;;14.87;7.70;;;;;;;11.79;77.01;100839.81;5037081;28;20698;-65
2022/05/29 01:19:42;;;;;;;17.43;7.60;;;;;;;11.86;76.64;100843.34;5036932;28;20392;-64
2022/05/29 01:22:26;;;;;;;13.80;6.90;;;;;;;12.06;76.27;100839.13;5037742;28;20444;-64
2022/05/29 01:25:03;;;;;;;12.93;7.20;;;;;;;11.86;76.71;100846.81;5037693;28;20416;-64
2022/05/29 01:27:47;;;;;;;22.67;9.57;;;;;;;11.77;77.39;100837.22;5037503;28;20839;-65
2022/05/29 01:30:21;;;;;;;20.23;10.03;;;;;;;11.86;76.89;100843.34;5037649;28;20392;-64
2022/05/29 01:32:52;;;;;;;17.40;7.60;;;;;;;11.67;76.77;100840.63;5037510;28;20395;-65
2022/05/29 01:35:49;;;;;;;21.30;8.83;;;;;;;11.67;77.24;100835.38;5036806;28;20559;-65
2022/05/29 01:38:21;;;;;;;17.80;7.97;;;;;;;11.69;77.00;100841.50;5036678;28;20425;-65
2022/05/29 01:40:49;;;;;;;18.90;7.50;;;;;;;11.68;76.55;100837.16;5038389;28;20516;-65
2022/05/29 01:43:23;;;;;;;13.63;6.43;;;;;;;11.70;76.85;100839.75;5040430;28;20507;-64
2022/05/29 01:46:11;;;;;;;18.03;7.50;;;;;;;11.74;76.50;100834.56;5040489;28;20391;-65
2022/05/29 01:49:19;;;;;;;17.27;6.93;;;;;;;11.87;75.60;100835.50;5040656;28;20395;-65
2022/05/29 01:51:56;;;;;;;17.30;7.73;;;;;;;11.83;76.05;100830.28;5054103;28;20420;-65
2022/05/29 01:54:45;;;;;;;12.70;7.30;;;;;;;11.67;76.07;100835.38;5041382;28;20440;-65
2022/05/29 01:57:23;;;;;;;16.17;7.87;;;;;;;11.93;75.89;100827.72;5023889;28;20428;-64
2022/05/29 01:59:56;;;;;;;14.43;6.87;;;;;;;11.91;75.60;100825.97;5041083;28;20813;-64
2022/05/29 02:02:26;;;;;;;13.90;6.43;;;;;;;11.85;76.39;100825.91;5040779;28;20420;-65
2022/05/29 02:04:55;;;;;;;16.50;7.30;;;;;;;12.05;75.07;100821.69;5040272;28;20425;-64
2022/05/29 02:10:08;;;;;;;19.57;6.93;;;;;;;12.09;75.07;100818.22;5041144;28;20801;-64
2022/05/29 02:12:35;;;;;;;12.87;6.53;;;;;;;12.13;75.28;100814.75;5039912;28;20458;-65
2022/05/29 02:15:08;;;;;;;15.70;8.27;;;;;;;12.00;75.77;100813.00;5040055;28;20693;-65
2022/05/29 02:17:39;;;;;;;17.10;7.33;;;;;;;12.17;75.64;100809.56;5039835;28;20506;-65
2022/05/29 02:20:09;;;;;;;15.73;7.00;;;;;;;12.13;75.53;100806.94;5039849;28;20435;-64
2022/05/29 02:22:35;;;;;;;13.43;6.70;;;;;;;12.13;75.35;100812.16;5039619;28;20548;-65
2022/05/29 02:25:18;;;;;;;12.07;7.13;;;;;;;11.76;76.24;100816.31;5040512;28;20671;-64
2022/05/29 02:27:46;;;;;;;15.70;6.90;;;;;;;12.27;75.18;100806.09;5039809;28;20476;-65
2022/05/29 02:30:12;;;;;;;19.47;7.40;;;;;;;11.66;75.62;100804.03;5039920;28;20474;-65
2022/05/29 02:33:05;;;;;;;15.23;7.10;;;;;;;11.88;74.89;100800.69;5039602;28;20864;-65
2022/05/29 02:35:40;;;;;;;20.30;6.90;;;;;;;11.84;74.74;100795.44;5039659;28;20465;-64
2022/05/29 02:38:09;;;;;;;22.13;7.53;;;;;;;11.88;75.61;100791.97;5040164;28;20558;-64
2022/05/29 02:40:53;;;;;;;14.10;7.33;;;;;;;11.72;75.69;100791.91;5039606;28;20402;-65
2022/05/29 02:43:38;;;;;;;17.60;6.83;;;;;;;11.44;76.08;100796.06;5040072;28;20642;-65
2022/05/29 02:46:18;;;;;;;16.07;6.97;;;;;;;11.78;75.76;100791.94;5039522;28;20420;-63
2022/05/29 02:48:58;;;;;;;16.30;7.00;;;;;;;11.72;75.78;100785.81;5039634;28;20416;-64
2022/05/29 02:51:30;;;;;;;18.30;6.53;;;;;;;11.55;75.96;100793.53;5039904;28;20399;-65
2022/05/29 02:53:56;;;;;;;15.70;7.30;;;;;;;11.66;76.43;100784.00;5038885;28;20439;-64
2022/05/29 02:56:21;;;;;;;18.93;8.33;;;;;;;11.74;75.93;100781.47;5039845;28;20472;-64
2022/05/29 02:58:50;;;;;;;12.37;7.20;;;;;;;11.70;75.89;100785.78;5040183;28;20209;-65
2022/05/29 03:01:28;;;;;;;17.23;7.70;;;;;;;11.88;75.87;100781.53;5039786;28;20233;-64
2022/05/29 03:04:19;;;;;;;13.33;6.93;;;;;;;11.79;76.08;100782.38;5038962;28;20415;-65
2022/05/29 03:07:05;;;;;;;18.30;7.10;;;;;;;11.86;75.59;100781.53;5022464;28;20653;-65
2022/05/29 03:09:39;;;;;;;15.27;7.70;;;;;;;11.67;76.48;100774.47;5039009;28;20383;-65
2022/05/29 03:12:32;;;;;;;16.23;7.20;;;;;;;11.77;75.92;100778.84;5038829;28;20508;-65
2022/05/29 03:15:18;;;;;;;11.67;6.70;;;;;;;11.70;76.06;100772.72;5038894;28;20951;-64
2022/05/29 03:17:46;;;;;;;21.93;7.70;;;;;;;11.73;76.51;100775.38;5038771;28;20453;-64
2022/05/29 03:20:29;;;;;;;19.90;8.20;;;;;;;11.44;76.85;100776.06;5038842;28;20394;-65
2022/05/29 03:23:00;;;;;;;16.40;7.20;;;;;;;11.31;78.03;100783.78;5039290;28;20452;-64
2022/05/29 03:25:37;;;;;;;16.17;6.50;;;;;;;11.44;77.66;100781.28;5039429;28;20409;-64
2022/05/29 03:28:03;;;;;;;20.30;8.17;;;;;;;11.44;77.67;100775.19;5039414;28;20482;-64
2022/05/29 03:30:33;;;;;;;13.57;8.27;;;;;;;11.48;77.54;100773.47;5038523;28;20446;-64
2022/05/29 03:33:00;;;;;;;22.47;8.00;;;;;;;11.54;77.59;100766.56;5038305;28;20416;-64
2022/05/29 03:35:32;;;;;;;15.03;7.30;;;;;;;11.70;77.50;100771.88;5039077;28;20460;-64
2022/05/29 03:37:58;;;;;;;21.67;7.40;;;;;;;11.65;76.88;100774.47;5039076;28;20418;-64
2022/05/29 03:40:26;;;;;;;22.10;7.97;;;;;;;11.84;76.56;100777.16;5038280;28;20460;-64
2022/05/29 03:42:52;;;;;;;14.13;7.40;;;;;;;11.55;76.82;100768.28;5039221;28;20817;-65
2022/05/29 03:45:17;;;;;;;12.87;7.00;;;;;;;11.60;77.76;100771.81;5039067;28;20417;-64
2022/05/29 03:47:42;;;;;;;18.07;7.50;;;;;;;11.82;76.70;100768.44;5039031;28;20189;-65
2022/05/29 03:50:12;;;;;;;16.40;6.70;;;;;;;11.74;76.60;100777.09;5039460;28;20253;-65
2022/05/29 03:52:37;;;;;;;13.13;6.53;;;;;;;11.61;76.97;100765.72;5038679;28;20536;-63
2022/05/29 03:55:03;;;;;;;20.50;7.20;;;;;;;12.17;75.41;100767.75;5038801;28;20454;-64
2022/05/29 03:57:28;;;;;;;19.87;7.13;;;;;;;11.72;76.59;100767.53;5039296;28;20178;-65
2022/05/29 03:59:53;;;;;;;11.50;6.90;;;;;;;11.72;77.81;100767.53;5038767;28;20206;-64
2022/05/29 04:02:19;;;;;;;18.20;7.00;;;;;;;12.02;76.61;100765.97;5038446;28;20189;-65
2022/05/29 04:04:44;;;;;;;13.23;7.30;;;;;;;11.66;77.00;100760.50;5039119;28;20162;-65
2022/05/29 04:07:09;;;;;;;16.40;7.40;;;;;;;11.38;77.45;100765.59;5038546;28;20174;-65
2022/05/29 04:12:19;;;;;;;15.67;7.30;;;;;;;11.82;76.45;100765.84;5038450;28;20181;-65
2022/05/29 04:14:44;;;;;;;19.03;6.90;;;;;;;12.01;76.25;100762.47;5038373;28;20870;-64
2022/05/29 04:17:13;;;;;;;18.97;7.30;;;;;;;11.91;76.96;100756.28;5038275;28;20222;-65
2022/05/29 04:19:39;;;;;;;18.57;7.80;;;;;;;11.72;77.40;100763.16;5038492;28;20171;-64
2022/05/29 04:22:16;;;;;;;19.10;7.23;;;;;;;12.09;76.43;100763.34;5038414;28;20436;-65
2022/05/29 04:24:41;;;;;;;16.17;6.83;;;;;;;11.94;77.34;100756.34;5038439;28;20468;-64
2022/05/29 04:27:08;;;;;;;17.70;7.60;;;;;;;11.78;77.43;100754.50;5038310;28;20396;-65
2022/05/29 04:29:33;;;;;;;13.90;7.07;;;;;;;11.63;78.08;100757.91;5038341;28;20186;-65
2022/05/29 04:34:43;;;;;;;15.50;7.53;;;;;;;11.84;77.60;100756.25;5038153;28;20200;-65
2022/05/29 04:37:08;;;;;;;14.23;7.10;;;;;;;11.83;77.62;100759.75;5038168;28;20417;-65
2022/05/29 04:39:36;;;;;;;17.63;7.43;;;;;;;11.61;78.24;100752.66;5038701;28;20508;-64
2022/05/29 04:42:02;;;;;;;16.13;6.83;;;;;;;11.88;77.54;100747.56;5037980;28;20170;-64
2022/05/29 04:44:29;;;;;;;15.63;6.83;;;;;;;11.78;77.72;100752.78;5038026;28;20428;-63
2022/05/29 04:46:57;;;;;;;21.17;7.50;;;;;;;11.78;78.61;100751.88;5038805;28;20409;-64
2022/05/29 04:49:22;;;;;;;15.80;7.50;;;;;;;11.74;77.38;100743.13;5038082;28;20394;-65
2022/05/29 04:51:47;;;;;;;17.80;6.60;;;;;;;11.75;77.50;100744.91;5037131;28;20417;-65
2022/05/29 04:54:12;;;;;;;13.63;7.07;;;;;;;12.08;76.61;100751.19;5038374;28;20170;-65
2022/05/29 04:56:38;;;;;;;15.03;6.10;;;;;;;12.00;76.61;100747.66;5037835;28;20511;-64
2022/05/29 04:59:03;;;;;;;11.73;6.60;;;;;;;11.93;77.23;100748.47;5037994;28;20178;-64
2022/05/29 05:01:28;;;;;;;14.60;6.30;;;;;;;12.07;76.71;100741.59;5038241;28;20176;-65
2022/05/29 05:03:54;;;;;;;21.87;7.07;;;;;;;12.05;76.81;100738.09;5037072;28;20182;-65
2022/05/29 05:06:19;;;;;;;17.73;7.60;;;;;;;12.16;76.51;100737.25;5038038;28;20166;-64
2022/05/29 05:08:45;;;;;;;15.37;6.70;;;;;;;12.15;76.84;100731.16;5038314;28;20440;-64
2022/05/29 05:11:10;;;;;;;15.50;7.43;;;;;;;12.22;77.01;100734.69;5037811;28;20590;-64
2022/05/29 05:13:35;;;;;;;13.73;6.53;;;;;;;12.14;76.85;100739.88;5037678;28;20221;-64
2022/05/29 05:16:03;;;;;;;18.87;7.10;;;;;;;11.92;77.23;100733.66;5040020;28;20238;-65
2022/05/29 05:18:28;;;;;;;18.13;6.30;;;;;;;11.92;77.36;100733.66;5041501;28;20268;-65
2022/05/29 05:20:54;;;;;;;18.93;6.77;;;;;;;12.04;76.94;100731.13;5041894;28;20448;-65
2022/05/29 05:23:19;;;;;;;13.20;6.83;;;;;;;11.95;77.74;100733.72;5041545;28;20188;-64
2022/05/29 05:25:45;;;;;;;14.43;7.40;;;;;;;12.10;77.02;100725.06;5041689;28;20178;-65
2022/05/29 05:28:10;;;;;;;12.70;7.57;;;;;;;12.13;76.19;100730.28;5041861;28;20201;-65
2022/05/29 05:30:35;;;;;;;16.50;7.10;;;;;;;11.85;77.18;100737.97;5041585;28;20166;-64
2022/05/29 05:33:01;;;;;;;11.23;6.50;;;;;;;12.25;76.27;100738.16;5041324;28;20181;-64
2022/05/29 05:35:26;;;;;;;14.17;6.20;;;;;;;12.33;76.32;100738.19;5041947;28;20440;-64
2022/05/29 05:37:51;;;;;;;18.33;7.03;;;;;;;12.67;75.71;100738.22;5041432;28;20236;-65
2022/05/29 05:40:17;;;;;;;15.10;7.17;;;;;;;12.90;74.59;100725.16;5041288;28;20181;-65
2022/05/29 05:42:42;;;;;;;12.03;6.17;;;;;;;12.86;74.73;100733.03;5041571;28;20170;-65
2022/05/29 05:45:10;;;;;;;15.10;6.80;;;;;;;12.77;74.12;100732.16;5041223;28;20174;-64
2022/05/29 05:47:36;;;;;;;15.93;7.57;;;;;;;12.67;74.25;100742.59;5041201;28;20170;-64
2022/05/29 05:50:02;;;;;;;12.63;6.20;;;;;;;12.71;74.90;100736.50;5041404;28;20382;-64
2022/05/29 05:52:27;;;;;;;11.53;6.60;;;;;;;12.16;75.35;100735.50;5056836;28;20533;-65
2022/05/29 05:54:52;;;;;;;22.27;7.00;;;;;;;12.64;74.29;100726.03;5040922;28;20481;-65
2022/05/29 05:57:18;;;;;;;13.50;6.13;;;;;;;12.52;75.67;100735.59;5041633;28;20246;-64
2022/05/29 05:59:44;;;;;;;12.70;6.40;;;;;;;12.37;75.63;100733.84;5040894;28;20170;-64
2022/05/29 06:02:10;;;;;;;14.90;7.17;;;;;;;12.59;75.44;100740.81;5040729;28;20388;-65
2022/05/29 06:04:37;;;;;;;12.93;6.47;;;;;;;12.81;75.13;100738.22;5041237;28;20169;-64
2022/05/29 06:07:03;;;;;;;16.60;6.70;;;;;;;12.40;75.72;100744.28;5040784;28;20166;-64
2022/05/29 06:09:29;;;;;;;15.63;6.60;;;;;;;12.54;76.13;100745.22;5040820;28;20400;-64
2022/05/29 06:11:55;;;;;;;14.70;6.57;;;;;;;12.56;76.17;100747.81;5040945;28;20401;-65
2022/05/29 06:14:20;;;;;;;13.43;6.97;;;;;;;12.52;76.47;100748.69;5040620;28;20431;-65
2022/05/29 06:16:45;;;;;;;13.37;6.73;;;;;;;12.76;76.38;100740.84;5040494;28;20232;-65
2022/05/29 06:19:11;;;;;;;16.93;9.03;;;;;;;12.80;75.87;100741.75;5041174;28;20166;-63
2022/05/29 06:21:36;;;;;;;18.00;6.87;;;;;;;12.66;76.08;100746.94;5040589;28;20540;-64
2022/05/29 06:24:02;;;;;;;10.80;8.07;;;;;;;12.49;76.14;100751.28;5040388;28;20173;-65
2022/05/29 06:26:27;;;;;;;18.03;6.60;;;;;;;12.56;77.10;100750.44;5040247;28;20167;-65
2022/05/29 06:28:52;;;;;;;14.97;6.90;;;;;;;12.97;75.47;100749.56;5040001;28;20751;-68
2022/05/29 06:31:18;;;;;;;17.23;7.40;;;;;;;12.85;76.10;100747.81;5040328;28;20170;-64
2022/05/29 06:33:43;;;;;;;17.50;6.37;;;;;;;13.13;74.46;100738.22;5040663;28;20536;-64
2022/05/29 06:36:17;;;;;;;13.30;6.40;;;;;;;12.80;74.88;100741.75;5040095;28;20202;-65
2022/05/29 06:38:45;;;;;;;10.50;5.80;;;;;;;12.96;74.71;100742.59;5040270;28;20198;-65
2022/05/29 06:41:11;;;;;;;10.70;6.10;;;;;;;13.12;74.58;100746.97;5039335;28;20380;-65
2022/05/29 06:43:38;;;;;;;16.07;6.50;;;;;;;13.20;74.19;100746.94;5039393;28;20390;-64
2022/05/29 06:46:04;;;;;;;10.30;5.63;;;;;;;12.93;74.53;100753.06;5039731;28;20391;-65
2022/05/29 06:48:31;;;;;;;10.63;5.73;;;;;;;12.84;75.33;100747.81;5040083;28;20421;-65
2022/05/29 06:50:57;;;;;;;14.03;5.93;;;;;;;12.91;75.51;100746.97;5039914;28;20391;-64
2022/05/29 06:53:22;;;;;;;10.73;5.70;;;;;;;12.77;76.43;100755.69;5040155;28;20704;-65
2022/05/29 06:55:53;;;;;;;11.47;6.10;;;;;;;12.79;76.30;100753.06;5039628;28;20209;-64
2022/05/29 06:58:18;;;;;;;10.17;6.00;;;;;;;12.92;76.21;100751.31;5039006;28;20546;-65
2022/05/29 07:08:55;;;;;;;10.03;5.80;;;;;;;13.23;76.54;100749.56;5039717;28;20478;-64
2022/05/29 07:11:22;;;;;;;9.10;5.80;;;;;;;13.14;76.30;100753.06;5039669;28;20388;-64
2022/05/29 07:13:48;;;;;;;14.53;5.33;;;;;;;13.45;75.33;100750.44;5039364;28;20182;-65
2022/05/29 07:16:15;;;;;;;9.53;5.40;;;;;;;13.37;75.23;100741.72;5038497;28;20537;-65
2022/05/29 07:18:40;;;;;;;13.03;5.20;;;;;;;13.20;75.72;100748.69;5039945;28;20189;-65
2022/05/29 07:21:06;;;;;;;14.40;5.90;;;;;;;13.98;73.87;100750.28;5038598;28;20416;-65
2022/05/29 07:23:32;;;;;;;8.40;5.27;;;;;;;13.74;74.11;100744.22;5039091;28;20222;-65
2022/05/29 07:25:58;;;;;;;11.80;5.97;;;;;;;13.80;74.26;100746.84;5039044;28;20535;-65
2022/05/29 07:28:24;;;;;;;8.83;5.50;;;;;;;13.42;75.49;100750.44;5039129;28;20498;-64
2022/05/29 07:30:50;;;;;;;7.17;5.13;;;;;;;13.73;74.54;100744.25;5039153;28;20174;-64
2022/05/29 07:33:16;;;;;;;11.57;5.80;;;;;;;13.84;73.48;100742.44;5039382;28;20384;-64
2022/05/29 07:35:41;;;;;;;8.17;5.60;;;;;;;13.59;74.15;100741.69;5038845;28;20872;-64
2022/05/29 07:38:07;;;;;;;9.80;6.57;;;;;;;13.78;73.83;100748.59;5038752;28;20200;-64
2022/05/29 07:40:32;;;;;;;9.07;5.40;;;;;;;14.05;72.57;100741.50;5039563;28;20555;-65
2022/05/29 07:45:41;;;;;;;12.23;5.70;;;;;;;14.25;71.88;100737.91;5038986;28;20253;-65
2022/05/29 07:48:07;;;;;;;11.50;5.73;;;;;;;14.59;71.06;100738.56;5038912;28;20466;-65
2022/05/29 07:50:33;;;;;;;10.30;5.83;;;;;;;14.76;70.28;100735.84;5038846;28;20166;-65
2022/05/29 07:52:58;;;;;;;13.87;5.73;;;;;;;14.75;69.97;100734.09;5039253;28;20376;-65
2022/05/29 07:55:23;;;;;;;7.27;4.90;;;;;;;14.95;67.53;100731.31;5038654;28;20588;-64
2022/05/29 07:57:49;;;;;;;10.03;4.80;;;;;;;15.64;66.14;100736.75;5038690;28;20174;-64
2022/05/29 08:00:17;;;;;;;7.87;5.00;;;;;;;15.18;66.81;100737.25;5038568;28;20490;-64
2022/05/29 08:02:42;;;;;;;9.63;5.13;;;;;;;16.15;65.21;100726.50;5038437;28;20814;-65
2022/05/29 08:05:10;;;;;;;10.67;5.23;;;;;;;16.03;64.72;100731.06;5038674;28;20420;-65
2022/05/29 08:07:35;;;;;;;7.47;4.93;;;;;;;15.82;66.11;100730.47;5038918;28;20166;-65
2022/05/29 08:10:01;;;;;;;11.03;5.77;;;;;;;15.55;64.17;100742.13;5038583;28;20419;-65
2022/05/29 08:12:26;;;;;;;10.77;5.30;;;;;;;15.27;65.92;100742.41;5038330;28;20170;-65
2022/05/29 08:14:51;;;;;;;12.13;5.70;;;;;;;15.05;66.72;100741.75;5038953;28;20591;-65
2022/05/29 08:17:17;;;;;;;8.50;6.53;;;;;;;14.78;67.68;100735.84;5038175;28;20236;-65
2022/05/29 08:19:42;;;;;;;9.67;6.00;;;;;;;15.01;68.21;100740.91;5038291;28;20231;-64
2022/05/29 08:22:07;;;;;;;8.30;5.23;;;;;;;14.69;68.63;100734.13;5038618;28;20220;-64
2022/05/29 08:33:06;;;;;;;10.10;5.40;;;;;;;14.27;69.83;100742.25;5038067;28;20423;-65
2022/05/29 08:35:33;;;;;;;9.70;5.47;;;;;;;14.72;69.42;100742.00;5037812;28;20457;-64
2022/05/29 08:38:00;;;;;;;8.80;5.40;;;;;;;15.18;67.93;100743.38;5037247;28;20424;-65
2022/05/29 08:40:26;;;;;;;9.70;5.53;;;;;;;15.11;68.57;100734.69;5038616;28;20463;-65
2022/05/29 08:42:51;;;;;;;13.60;5.90;;;;;;;14.88;68.50;100736.63;5037110;28;20679;-65
2022/05/29 08:45:18;;;;;;;9.03;5.20;;;;;;;14.79;68.17;100735.81;5037930;28;20395;-64
2022/05/29 08:47:45;;;;;;;9.20;5.10;;;;;;;15.15;67.81;100736.41;5037687;28;20510;-65
2022/05/29 08:50:18;;;;;;;12.30;7.07;;;;;;;14.76;69.00;100734.97;5036649;28;20387;-63
2022/05/29 08:53:03;;;;;;;11.73;6.07;;;;;;;14.96;68.39;100732.19;5036889;28;20445;-65
2022/05/29 08:55:52;;;;;;;9.27;5.77;;;;;;;14.24;69.94;100739.66;5037877;28;20486;-64
2022/05/29 08:58:20;;;;;;;14.67;6.17;;;;;;;14.44;71.02;100736.91;5037204;28;20464;-64
2022/05/29 09:00:50;;;;;;;7.20;5.23;;;;;;;14.57;71.46;100736.81;5037059;28;20878;-65
2022/05/29 09:03:30;;;;;;;7.00;5.80;;;;;;;14.10;72.93;100733.63;5037580;28;20383;-65
2022/05/29 09:06:16;;;;;;;9.63;5.70;;;;;;;14.46;72.93;100736.91;5037623;28;20463;-65
2022/05/29 09:09:07;;;;;;;10.60;6.60;;;;;;;14.60;73.41;100731.53;5037578;28;20432;-64
2022/05/29 09:11:57;;;;;;;9.43;5.40;;;;;;;13.76;72.88;100741.59;5037366;28;20388;-64
2022/05/29 09:14:43;;;;;;;15.73;6.00;;;;;;;13.95;73.39;100739.78;5037544;28;20432;-64
2022/05/29 09:17:31;;;;;;;9.50;7.17;;;;;;;14.41;74.06;100738.66;5036789;28;20428;-64
2022/05/29 09:20:02;;;;;;;13.87;6.30;;;;;;;13.77;75.03;100745.97;5036921;28;20742;-65
2022/05/29 09:22:30;;;;;;;10.87;5.37;;;;;;;13.71;75.24;100744.25;5037337;28;20391;-64
2022/05/29 09:25:09;;;;;;;13.47;6.23;;;;;;;14.12;75.53;100744.97;5036819;28;20807;-65
2022/05/29 09:27:37;;;;;;;8.87;5.50;;;;;;;14.64;73.03;100730.72;5037464;28;20474;-64
2022/05/29 09:30:04;;;;;;;7.33;5.50;;;;;;;14.09;73.19;100744.97;5036888;28;20376;-64
2022/05/29 09:32:31;;;;;;;9.13;5.70;;;;;;;14.37;74.65;100756.19;5037279;28;20406;-64
2022/05/29 09:35:16;;;;;;;8.53;5.27;;;;;;;13.60;76.05;100752.16;5036741;28;20549;-65
2022/05/29 09:37:52;;;;;;;5.90;4.57;;;;;;;13.70;75.04;100749.50;5036799;28;20429;-64
2022/05/29 09:40:24;;;;;;;7.90;4.90;;;;;;;13.87;74.80;100745.06;5037478;28;20399;-65
2022/05/29 09:42:53;;;;;;;8.43;4.93;;;;;;;13.93;75.14;100749.41;5037390;28;20708;-64
2022/05/29 09:45:27;;;;;;;9.90;5.77;;;;;;;14.20;73.83;100748.41;5037431;28;20436;-65
2022/05/29 09:50:39;;;;;;;11.37;5.47;;;;;;;14.21;73.12;100751.94;5037469;28;20424;-64
2022/05/29 09:53:10;;;;;;;7.43;5.40;;;;;;;14.05;74.09;100749.34;5037121;28;20421;-64
2022/05/29 09:55:37;;;;;;;7.97;5.13;;;;;;;14.36;73.32;100746.59;5036651;28;20443;-64
2022/05/29 09:58:08;;;;;;;8.50;5.20;;;;;;;14.24;73.56;100762.38;5036381;28;20388;-64
2022/05/29 10:00:39;;;;;;;14.60;6.30;;;;;;;14.04;74.95;100758.09;5037403;28;20818;-65
2022/05/29 10:03:11;;;;;;;6.90;5.33;;;;;;;14.13;73.24;100746.72;5040603;28;20394;-65
2022/05/29 10:05:38;;;;;;;8.57;5.30;;;;;;;14.09;74.28;100752.84;5040073;28;20500;-65
2022/05/29 10:08:26;;;;;;;8.50;5.00;;;;;;;13.88;73.74;100753.78;5041048;28;20386;-65
2022/05/29 10:10:51;;;;;;;7.37;5.20;;;;;;;13.77;73.35;100752.09;5040767;28;20649;-64
2022/05/29 10:13:37;;;;;;;8.37;5.03;;;;;;;14.02;72.61;100757.25;5040541;28;20405;-65
2022/05/29 10:16:03;;;;;;;9.07;4.87;;;;;;;14.17;72.25;100752.78;5040437;28;20221;-64
2022/05/29 10:18:28;;;;;;;8.70;5.13;;;;;;;14.38;71.96;100750.03;5040761;28;20851;-64
2022/05/29 10:21:15;;;;;;;8.10;5.67;;;;;;;14.45;72.40;100751.78;5040767;28;20174;-65
2022/05/29 10:23:47;;;;;;;6.47;5.57;;;;;;;14.23;72.99;100750.16;5039919;28;20178;-65
2022/05/29 10:26:33;;;;;;;8.47;4.80;;;;;;;14.53;72.54;100745.59;5040519;28;20444;-65
2022/05/29 10:28:59;;;;;;;6.50;4.60;;;;;;;14.35;72.87;100750.06;5040150;28;20445;-64
2022/05/29 10:31:27;;;;;;;8.00;4.93;;;;;;;14.64;71.89;100741.19;5039669;28;20507;-64
2022/05/29 10:34:11;;;;;;;7.57;5.03;;;;;;;14.44;73.17;100742.16;5039473;28;20427;-65
2022/05/29 10:36:38;;;;;;;10.07;5.60;;;;;;;14.45;72.34;100754.41;5039568;28;20473;-65
2022/05/29 10:39:23;;;;;;;5.93;4.37;;;;;;;14.88;71.92;100749.75;5040372;28;20779;-66
2022/05/29 10:41:50;;;;;;;7.70;5.03;;;;;;;14.57;73.00;100744.69;5040311;28;20731;-66
2022/05/29 10:44:37;;;;;;;8.57;4.83;;;;;;;14.27;73.45;100747.50;5039307;28;20388;-64
2022/05/29 10:47:26;;;;;;;7.57;5.20;;;;;;;14.64;73.19;100743.81;5039951;28;20429;-64
2022/05/29 10:50:03;;;;;;;8.77;5.50;;;;;;;13.86;74.52;100743.31;5039255;28;20413;-65
2022/05/29 10:52:44;;;;;;;7.27;5.40;;;;;;;14.75;72.77;100739.34;5039816;28;20466;-66
2022/05/29 10:55:46;;;;;;;5.33;4.83;;;;;;;14.40;73.43;100743.06;5039446;28;20885;-65
2022/05/29 10:58:43;;;;;;;6.90;5.20;;;;;;;14.97;72.48;100740.03;5039832;28;20405;-66
2022/05/29 11:04:50;;;;;;;12.53;5.40;;;;;;;14.39;71.20;100736.06;5039732;28;20379;-65
2022/05/29 11:07:33;;;;;;;13.40;4.70;;;;;;;15.07;71.58;100734.72;5039899;28;20397;-65
2022/05/29 11:10:08;;;;;;;8.80;4.90;;;;;;;15.04;70.49;100729.50;5038946;28;20412;-65
2022/05/29 11:13:05;;;;;;;11.90;5.50;;;;;;;14.89;70.40;100728.75;5038628;28;20503;-65
2022/05/29 11:15:52;;;;;;;8.53;4.73;;;;;;;15.50;70.24;100726.41;5038729;28;20460;-65
2022/05/29 11:18:55;;;;;;;6.47;4.60;;;;;;;15.40;69.18;100728.28;5039415;28;20459;-64
2022/05/29 11:21:31;;;;;;;8.50;5.00;;;;;;;15.40;69.14;100724.78;5038705;28;20420;-65
2022/05/29 11:24:27;;;;;;;7.17;5.33;;;;;;;15.15;69.43;100728.53;5038567;28;20415;-65
2022/05/29 11:27:16;;;;;;;7.40;4.80;;;;;;;15.66;68.48;100716.59;5039226;28;20409;-65
2022/05/29 11:30:08;;;;;;;5.17;4.40;;;;;;;15.51;68.13;100716.78;5039497;28;20462;-66
2022/05/29 11:32:48;;;;;;;7.93;4.20;;;;;;;15.26;68.41;100714.41;5038302;28;20447;-65
2022/05/29 11:35:40;;;;;;;4.97;4.20;;;;;;;15.65;67.29;100718.38;5038391;28;20909;-64
2022/05/29 11:38:16;;;;;;;9.40;4.43;;;;;;;15.61;67.92;100710.53;5038468;28;20437;-65
2022/05/29 11:40:45;;;;;;;7.80;4.27;;;;;;;15.45;68.34;100712.44;5039057;28;20468;-65
2022/05/29 11:43:24;;;;;;;5.33;3.80;;;;;;;15.09;67.15;100709.31;5038101;28;20421;-65
2022/05/29 11:51:38;;;;;;;4.90;3.80;;;;;;;15.03;68.42;100707.59;5038320;28;20519;-65
2022/05/29 11:54:11;;;;;;;5.53;4.27;;;;;;;15.51;67.69;100701.03;5037899;28;20515;-64
2022/05/29 11:56:55;;;;;;;9.53;4.40;;;;;;;15.96;66.50;100694.31;5038026;28;20443;-65
2022/05/29 11:59:24;;;;;;;7.20;4.50;;;;;;;15.39;67.26;100702.88;5037930;28;20851;-65
2022/05/29 12:01:59;;;;;;;6.73;4.20;;;;;;;15.70;66.85;100701.66;5037926;28;20420;-64
2022/05/29 12:04:38;;;;;;;6.07;4.70;;;;;;;15.73;67.48;100701.63;5038684;28;20423;-66
2022/05/29 12:07:06;;;;;;;8.27;4.57;;;;;;;16.10;65.33;100698.53;5037917;28;20424;-65
2022/05/29 12:09:36;;;;;;;14.77;6.47;;;;;;;16.22;65.24;100692.22;5037657;28;20421;-65
2022/05/29 12:12:08;;;;;;;6.30;4.67;;;;;;;15.64;64.95;100699.97;5037551;28;20425;-65
2022/05/29 12:14:37;;;;;;;7.83;4.20;;;;;;;15.87;64.58;100694.47;5037468;28;20428;-65
2022/05/29 12:17:08;;;;;;;5.10;3.50;;;;;;;15.92;64.92;100699.66;5037420;28;20461;-65
2022/05/29 12:19:40;;;;;;;6.83;4.00;;;;;;;15.68;65.01;100696.41;5037397;28;20684;-66